createdAt,value
2018-11-14T00:02:15.131Z,8.13
2018-11-14T00:04:45.943Z,8.12
2018-11-14T00:07:16.862Z,8.12
2018-11-14T00:10:05.435Z,8.18
2018-11-14T00:12:36.706Z,8.19
2018-11-14T00:15:12.789Z,8.17
2018-11-14T00:17:44.975Z,8.11
2018-11-14T00:20:33.814Z,7.99
2018-11-14T00:23:09.176Z,7.89
2018-11-14T00:25:40.502Z,7.82
2018-11-14T00:28:11.588Z,7.84
2018-11-14T00:30:42.723Z,7.78
2018-11-14T00:33:15.131Z,7.73
2018-11-14T00:35:46.958Z,7.80
2018-11-14T00:38:17.445Z,7.75
2018-11-14T00:40:48.664Z,7.74
2018-11-14T00:43:19.354Z,7.63
2018-11-14T00:45:50.091Z,7.59
2018-11-14T00:48:21.449Z,7.67
2018-11-14T00:50:52.160Z,7.65
2018-11-14T00:53:23.051Z,7.67
2018-11-14T00:55:53.829Z,7.74
2018-11-14T00:58:25.150Z,7.73
2018-11-14T01:00:55.880Z,7.72
2018-11-14T01:03:27.204Z,7.66
2018-11-14T01:05:58.021Z,7.64
2018-11-14T01:08:30.550Z,7.56
2018-11-14T01:11:08.427Z,7.54
2018-11-14T01:16:44.925Z,7.56
2018-11-14T01:19:32.517Z,7.51
2018-11-14T01:22:18.196Z,7.46
2018-11-14T01:24:58.977Z,7.36
2018-11-14T01:27:44.909Z,7.33
2018-11-14T01:30:29.409Z,7.37
2018-11-14T01:33:13.704Z,7.35
2018-11-14T01:36:00.976Z,7.35
2018-11-14T01:38:58.736Z,7.30
2018-11-14T01:41:40.233Z,7.35
2018-11-14T01:44:21.652Z,7.36
2018-11-14T01:47:04.786Z,7.39
2018-11-14T01:49:48.523Z,7.42
2018-11-14T01:52:33.694Z,7.43
2018-11-14T01:55:20.117Z,7.39
2018-11-14T01:58:18.272Z,7.36
2018-11-14T02:01:08.906Z,7.37
2018-11-14T02:03:59.460Z,7.37
2018-11-14T02:07:15.232Z,7.36
2018-11-14T02:10:00.903Z,7.29
2018-11-14T02:12:53.727Z,7.28
2018-11-14T02:15:46.008Z,7.21
2018-11-14T02:18:31.250Z,7.17
2018-11-14T02:21:22.325Z,7.11
2018-11-14T02:24:27.419Z,7.05
2018-11-14T02:27:14.309Z,7.06
2018-11-14T02:30:02.616Z,7.07
2018-11-14T02:32:56.098Z,6.96
2018-11-14T02:35:50.394Z,6.85
2018-11-14T02:38:39.445Z,6.95
2018-11-14T02:41:20.516Z,6.84
2018-11-14T02:44:05.672Z,6.81
2018-11-14T02:46:45.431Z,6.96
2018-11-14T02:49:45.582Z,7.05
2018-11-14T02:52:35.322Z,7.05
2018-11-14T02:55:09.535Z,7.10
2018-11-14T02:57:40.407Z,7.18
2018-11-14T03:00:14.558Z,7.18
2018-11-14T03:02:45.389Z,7.21
2018-11-14T03:05:16.111Z,7.20
2018-11-14T03:07:46.833Z,7.08
2018-11-14T03:10:19.832Z,7.08
2018-11-14T03:12:50.615Z,6.99
2018-11-14T03:15:22.577Z,6.97
2018-11-14T03:17:53.882Z,7.01
2018-11-14T03:20:25.734Z,6.94
2018-11-14T03:22:56.697Z,6.75
2018-11-14T03:25:27.494Z,6.72
2018-11-14T03:27:58.345Z,6.74
2018-11-14T03:30:29.369Z,6.73
2018-11-14T03:33:00.277Z,6.73
2018-11-14T03:35:36.026Z,6.69
2018-11-14T03:38:07.945Z,6.62
2018-11-14T03:40:40.109Z,6.70
2018-11-14T03:43:10.869Z,6.64
2018-11-14T03:45:44.625Z,6.69
2018-11-14T03:48:15.387Z,6.68
2018-11-14T03:50:46.498Z,6.71
2018-11-14T03:53:17.475Z,6.79
2018-11-14T03:55:49.178Z,6.81
2018-11-14T03:58:20.099Z,6.90
2018-11-14T04:00:51.130Z,6.78
2018-11-14T04:03:21.886Z,6.62
2018-11-14T04:05:52.714Z,6.54
2018-11-14T04:08:23.761Z,6.43
2018-11-14T04:10:54.806Z,6.33
2018-11-14T04:13:25.541Z,6.29
2018-11-14T04:15:56.696Z,6.45
2018-11-14T04:18:27.389Z,6.37
2018-11-14T04:20:58.105Z,6.35
2018-11-14T04:23:28.874Z,6.30
2018-11-14T04:25:59.548Z,6.37
2018-11-14T04:28:30.260Z,6.41
2018-11-14T04:31:06.001Z,6.44
2018-11-14T04:33:36.918Z,6.45
2018-11-14T04:36:08.419Z,6.47
2018-11-14T04:38:39.757Z,6.44
2018-11-14T04:41:11.083Z,6.31
2018-11-14T04:43:42.055Z,6.26
2018-11-14T04:46:13.214Z,6.32
2018-11-14T04:48:44.959Z,6.38
2018-11-14T04:51:17.188Z,6.41
2018-11-14T04:53:48.217Z,6.24
2018-11-14T04:56:19.569Z,6.32
2018-11-14T04:58:50.329Z,6.26
2018-11-14T05:01:21.026Z,6.31
2018-11-14T05:03:51.702Z,6.33
2018-11-14T05:06:22.916Z,6.32
2018-11-14T05:08:53.693Z,6.23
2018-11-14T05:11:24.760Z,6.18
2018-11-14T05:13:55.684Z,6.16
2018-11-14T05:16:26.590Z,6.19
2018-11-14T05:18:57.522Z,6.16
2018-11-14T05:21:28.300Z,6.19
2018-11-14T05:23:58.949Z,6.19
2018-11-14T05:26:29.745Z,6.26
2018-11-14T05:29:09.021Z,6.26
2018-11-14T05:31:49.010Z,6.33
2018-11-14T05:34:19.694Z,6.40
2018-11-14T05:36:50.914Z,6.39
2018-11-14T05:39:22.588Z,6.37
2018-11-14T05:41:53.425Z,6.33
2018-11-14T05:44:24.482Z,6.17
2018-11-14T05:46:56.288Z,6.18
2018-11-14T05:49:27.322Z,6.17
2018-11-14T05:51:58.771Z,6.06
2018-11-14T05:54:29.659Z,6.07
2018-11-14T05:57:04.944Z,6.01
2018-11-14T05:59:36.445Z,6.03
2018-11-14T06:02:09.252Z,6.03
2018-11-14T06:04:40.494Z,5.92
2018-11-14T06:07:11.867Z,5.92
2018-11-14T06:09:42.557Z,5.94
2018-11-14T06:12:13.814Z,5.90
2018-11-14T06:14:44.584Z,5.90
2018-11-14T06:17:17.168Z,5.83
2018-11-14T06:19:47.950Z,5.85
2018-11-14T06:22:18.690Z,5.90
2018-11-14T06:24:50.885Z,5.84
2018-11-14T06:27:21.631Z,5.85
2018-11-14T06:29:52.495Z,5.94
2018-11-14T06:32:23.313Z,5.90
2018-11-14T06:34:54.258Z,5.89
2018-11-14T06:37:25.628Z,5.79
2018-11-14T06:39:56.549Z,5.79
2018-11-14T06:42:27.425Z,5.82
2018-11-14T06:44:58.643Z,5.86
2018-11-14T06:47:29.418Z,5.88
2018-11-14T06:50:00.400Z,5.97
2018-11-14T06:52:35.736Z,5.93
2018-11-14T06:55:09.193Z,5.99
2018-11-14T06:57:40.235Z,5.85
2018-11-14T07:00:14.725Z,5.95
2018-11-14T07:02:49.093Z,6.11
2018-11-14T07:05:20.292Z,6.13
2018-11-14T07:07:51.148Z,6.02
2018-11-14T07:10:23.573Z,5.91
2018-11-14T07:12:54.508Z,5.97
2018-11-14T07:15:25.304Z,5.94
2018-11-14T07:17:56.049Z,5.85
2018-11-14T07:20:28.322Z,5.95
2018-11-14T07:22:59.092Z,5.97
2018-11-14T07:25:29.925Z,6.07
2018-11-14T07:28:00.740Z,6.04
2018-11-14T07:30:35.089Z,6.13
2018-11-14T07:33:12.661Z,6.14
2018-11-14T07:35:43.376Z,6.18
2018-11-14T07:38:46.787Z,6.15
2018-11-14T07:41:23.813Z,6.20
2018-11-14T07:43:54.852Z,6.35
2018-11-14T07:46:26.687Z,6.45
2018-11-14T07:48:58.360Z,6.53
2018-11-14T07:51:29.335Z,6.61
2018-11-14T07:54:00.339Z,6.68
2018-11-14T07:56:32.944Z,6.70
2018-11-14T07:59:05.590Z,6.76
2018-11-14T08:01:36.838Z,6.88
2018-11-14T08:04:08.076Z,6.92
2018-11-14T08:06:38.853Z,6.99
2018-11-14T08:09:09.731Z,7.09
2018-11-14T08:11:40.480Z,7.12
2018-11-14T08:14:11.395Z,7.23
2018-11-14T08:16:42.170Z,7.37
2018-11-14T08:19:23.000Z,7.45
2018-11-14T08:21:55.313Z,7.59
2018-11-14T08:24:26.393Z,7.75
2018-11-14T08:26:57.260Z,8.07
2018-11-14T08:29:29.269Z,8.31
2018-11-14T08:32:00.079Z,8.58
2018-11-14T08:34:36.357Z,8.66
2018-11-14T08:37:07.242Z,9.04
2018-11-14T08:39:38.815Z,8.96
2018-11-14T08:42:09.885Z,8.90
2018-11-14T08:44:40.670Z,9.07
2018-11-14T08:47:12.171Z,9.34
2018-11-14T08:49:43.036Z,9.56
2018-11-14T08:52:14.351Z,9.80
2018-11-14T08:54:46.604Z,10.03
2018-11-14T08:57:18.637Z,10.47
2018-11-14T08:59:49.973Z,11.43
2018-11-14T09:02:21.078Z,13.31
2018-11-14T09:04:52.105Z,14.35
2018-11-14T09:07:23.484Z,15.33
2018-11-14T09:09:54.603Z,16.44
2018-11-14T09:12:25.595Z,16.68
2018-11-14T09:14:58.655Z,19.04
2018-11-14T09:17:29.654Z,19.25
2018-11-14T09:20:00.676Z,18.96
2018-11-14T09:22:36.868Z,20.28
2018-11-14T09:25:10.369Z,19.68
2018-11-14T09:27:41.698Z,19.89
2018-11-14T09:30:15.353Z,21.45
2018-11-14T09:32:46.177Z,23.18
2018-11-14T09:35:18.443Z,22.23
2018-11-14T09:37:49.473Z,22.56
2018-11-14T09:40:21.716Z,24.01
2018-11-14T09:42:52.509Z,25.23
2018-11-14T09:45:24.537Z,26.96
2018-11-14T09:47:55.514Z,25.99
2018-11-14T09:50:28.587Z,26.38
2018-11-14T09:53:00.977Z,26.75
2018-11-14T09:55:32.884Z,29.36
2018-11-14T09:58:05.340Z,30.32
2018-11-14T10:00:37.095Z,31.59
2018-11-14T10:03:10.716Z,32.64
2018-11-14T10:05:41.692Z,32.23
2018-11-14T10:08:13.419Z,31.72
2018-11-14T10:10:44.194Z,31.74
2018-11-14T10:13:15.518Z,29.96
2018-11-14T10:15:46.378Z,30.18
2018-11-14T10:18:17.580Z,32.47
2018-11-14T10:20:48.352Z,33.36
2018-11-14T10:23:19.036Z,33.24
2018-11-14T10:25:49.777Z,33.60
2018-11-14T10:28:21.388Z,32.79
2018-11-14T10:30:52.491Z,33.76
2018-11-14T10:33:23.996Z,32.79
2018-11-14T10:35:55.826Z,33.59
2018-11-14T10:38:26.608Z,33.68
2018-11-14T10:40:57.565Z,31.65
2018-11-14T10:43:28.321Z,30.54
2018-11-14T10:45:59.550Z,29.38
2018-11-14T10:48:30.586Z,29.33
2018-11-14T10:51:06.323Z,27.01
2018-11-14T10:53:43.712Z,25.71
2018-11-14T10:56:14.497Z,25.66
2018-11-14T10:58:45.190Z,25.18
2018-11-14T11:01:21.013Z,26.23
2018-11-14T11:03:56.698Z,25.96
2018-11-14T11:06:35.522Z,27.09
2018-11-14T11:09:14.823Z,27.23
2018-11-14T11:11:50.509Z,27.73
2018-11-14T11:14:26.247Z,27.60
2018-11-14T11:17:04.980Z,26.75
2018-11-14T11:19:35.830Z,26.48
2018-11-14T11:22:08.262Z,26.18
2018-11-14T11:24:39.014Z,26.87
2018-11-14T11:27:09.740Z,24.65
2018-11-14T11:29:41.213Z,24.46
2018-11-14T11:32:12.293Z,24.26
2018-11-14T11:34:43.042Z,24.52
2018-11-14T11:37:13.978Z,24.97
2018-11-14T11:39:44.801Z,24.86
2018-11-14T11:42:15.802Z,24.90
2018-11-14T11:44:46.859Z,26.25
2018-11-14T11:47:23.818Z,25.67
2018-11-14T11:49:54.610Z,25.18
2018-11-14T11:52:25.392Z,25.04
2018-11-14T11:54:56.129Z,24.01
2018-11-14T11:57:27.436Z,24.44
2018-11-14T11:59:58.219Z,23.38
2018-11-14T12:02:29.012Z,24.20
2018-11-14T12:04:59.788Z,24.81
2018-11-14T12:07:31.301Z,25.08
2018-11-14T12:10:04.821Z,25.57
2018-11-14T12:12:35.657Z,24.31
2018-11-14T12:15:11.282Z,24.78
2018-11-14T12:17:43.240Z,25.26
2018-11-14T12:20:15.052Z,25.83
2018-11-14T12:22:47.450Z,25.89
2018-11-14T12:25:18.764Z,26.32
2018-11-14T12:27:49.553Z,26.37
2018-11-14T12:30:20.382Z,25.85
2018-11-14T12:32:51.096Z,25.87
2018-11-14T12:35:22.093Z,25.61
2018-11-14T12:37:52.981Z,25.42
2018-11-14T12:40:23.676Z,24.98
2018-11-14T12:42:54.970Z,24.96
2018-11-14T12:45:25.738Z,25.23
2018-11-14T12:47:56.540Z,25.20
2018-11-14T12:50:27.368Z,24.10
2018-11-14T12:52:59.337Z,21.79
2018-11-14T12:55:30.133Z,21.14
2018-11-14T12:58:00.841Z,20.41
2018-11-14T13:00:34.793Z,20.41
2018-11-14T13:03:09.068Z,20.10
2018-11-14T13:05:39.820Z,19.84
2018-11-14T13:08:10.848Z,19.63
2018-11-14T13:10:41.658Z,19.50
2018-11-14T13:13:12.442Z,19.51
2018-11-14T13:15:43.837Z,19.47
2018-11-14T13:18:14.897Z,19.35
2018-11-14T13:20:48.781Z,19.54
2018-11-14T13:23:21.066Z,19.56
2018-11-14T13:25:51.872Z,19.40
2018-11-14T13:28:23.655Z,19.41
2018-11-14T13:31:00.275Z,19.46
2018-11-14T13:33:38.027Z,19.57
2018-11-14T13:36:08.889Z,19.27
2018-11-14T13:38:39.817Z,19.08
2018-11-14T13:41:10.697Z,19.20
2018-11-14T13:43:42.485Z,18.90
2018-11-14T13:46:13.295Z,18.79
2018-11-14T13:48:44.119Z,18.81
2018-11-14T13:51:14.981Z,18.91
2018-11-14T13:53:47.134Z,18.79
2018-11-14T13:56:19.282Z,18.96
2018-11-14T13:58:51.193Z,18.87
2018-11-14T14:01:22.072Z,18.92
2018-11-14T14:03:53.852Z,19.15
2018-11-14T14:06:24.743Z,19.02
2018-11-14T14:08:55.524Z,18.96
2018-11-14T14:11:27.009Z,19.08
2018-11-14T14:14:04.028Z,18.69
2018-11-14T14:16:34.828Z,18.58
2018-11-14T14:19:06.666Z,18.57
2018-11-14T14:21:37.672Z,18.55
2018-11-14T14:24:11.780Z,18.42
2018-11-14T14:26:42.604Z,18.52
2018-11-14T14:29:13.373Z,18.68
2018-11-14T14:31:44.151Z,18.80
2018-11-14T14:34:15.007Z,18.60
2018-11-14T14:36:45.762Z,18.65
2018-11-14T14:39:16.532Z,18.53
2018-11-14T14:41:47.334Z,18.54
2018-11-14T14:44:18.808Z,18.53
2018-11-14T14:46:49.563Z,18.45
2018-11-14T14:49:20.333Z,18.55
2018-11-14T14:51:51.187Z,18.54
2018-11-14T14:54:21.955Z,18.31
2018-11-14T14:56:52.794Z,18.35
2018-11-14T14:59:23.575Z,18.27
2018-11-14T15:01:54.362Z,18.32
2018-11-14T15:04:25.100Z,18.43
2018-11-14T15:06:55.826Z,18.23
2018-11-14T15:09:26.640Z,18.10
2018-11-14T15:11:58.115Z,18.23
2018-11-14T15:14:28.956Z,18.15
2018-11-14T15:16:59.663Z,18.13
2018-11-14T15:19:30.684Z,17.98
2018-11-14T15:22:05.234Z,17.91
2018-11-14T15:24:36.074Z,17.83
2018-11-14T15:27:09.138Z,17.79
2018-11-14T15:29:39.913Z,17.91
2018-11-14T15:32:10.801Z,17.85
2018-11-14T15:34:41.662Z,17.78
2018-11-14T15:37:12.579Z,17.73
2018-11-14T15:39:43.484Z,17.65
2018-11-14T15:42:14.349Z,17.33
2018-11-14T15:44:45.118Z,17.50
2018-11-14T15:47:15.968Z,17.43
2018-11-14T15:49:47.027Z,17.46
2018-11-14T15:52:17.900Z,17.46
2018-11-14T15:54:49.940Z,17.42
2018-11-14T15:57:21.818Z,17.31
2018-11-14T15:59:52.816Z,17.21
2018-11-14T16:02:23.662Z,17.18
2018-11-14T16:04:54.446Z,17.16
2018-11-14T16:07:25.313Z,17.10
2018-11-14T16:09:56.117Z,17.11
2018-11-14T16:12:26.954Z,16.99
2018-11-14T16:14:57.727Z,17.17
2018-11-14T16:17:28.612Z,16.99
2018-11-14T16:19:59.301Z,17.01
2018-11-14T16:22:30.288Z,16.95
2018-11-14T16:25:02.313Z,16.81
2018-11-14T16:27:33.082Z,16.85
2018-11-14T16:30:08.917Z,16.80
2018-11-14T16:32:40.001Z,16.65
2018-11-14T16:35:11.204Z,16.56
2018-11-14T16:37:42.399Z,16.49
2018-11-14T16:40:16.144Z,16.45
2018-11-14T16:42:48.182Z,16.28
2018-11-14T16:45:19.090Z,16.18
2018-11-14T16:47:50.010Z,16.20
2018-11-14T16:50:21.612Z,16.05
2018-11-14T16:52:52.539Z,15.95
2018-11-14T16:55:23.611Z,15.89
2018-11-14T16:57:55.643Z,15.82
2018-11-14T17:00:28.272Z,15.80
2018-11-14T17:02:59.566Z,15.58
2018-11-14T17:05:31.471Z,15.62
2018-11-14T17:08:04.707Z,15.59
2018-11-14T17:10:35.601Z,15.42
2018-11-14T17:13:09.075Z,15.37
2018-11-14T17:15:39.834Z,15.24
2018-11-14T17:18:10.612Z,15.18
2018-11-14T17:20:42.326Z,14.97
2018-11-14T17:23:14.072Z,14.80
2018-11-14T17:25:45.529Z,14.66
2018-11-14T17:28:16.316Z,14.66
2018-11-14T17:30:46.980Z,14.65
2018-11-14T17:33:17.779Z,14.73
2018-11-14T17:35:48.574Z,14.70
2018-11-14T17:38:19.239Z,14.61
2018-11-14T17:40:50.058Z,14.53
2018-11-14T17:43:20.704Z,14.48
2018-11-14T17:45:51.382Z,14.45
2018-11-14T17:48:22.093Z,14.47
2018-11-14T17:50:52.772Z,14.42
2018-11-14T17:53:23.492Z,14.24
2018-11-14T17:55:54.113Z,14.12
2018-11-14T17:58:24.922Z,14.15
2018-11-14T18:00:55.939Z,13.95
2018-11-14T18:03:28.153Z,13.83
2018-11-14T18:05:58.840Z,13.75
2018-11-14T18:08:29.482Z,13.68
2018-11-14T18:11:00.153Z,13.65
2018-11-14T18:13:34.927Z,13.57
2018-11-14T18:16:07.281Z,13.51
2018-11-14T18:18:39.265Z,13.59
2018-11-14T18:21:12.101Z,13.51
2018-11-14T18:23:42.939Z,13.41
2018-11-14T18:26:13.684Z,13.39
2018-11-14T18:28:44.425Z,13.30
2018-11-14T18:31:15.210Z,13.21
2018-11-14T18:33:45.854Z,13.13
2018-11-14T18:36:21.145Z,12.96
2018-11-14T18:38:52.200Z,12.87
2018-11-14T18:41:22.892Z,12.81
2018-11-14T18:43:53.624Z,12.77
2018-11-14T18:46:25.025Z,12.77
2018-11-14T18:48:56.060Z,12.73
2018-11-14T18:51:26.864Z,12.71
2018-11-14T18:53:57.993Z,12.68
2018-11-14T18:56:28.777Z,12.59
2018-11-14T18:59:00.400Z,12.53
2018-11-14T19:01:31.923Z,12.48
2018-11-14T19:04:06.508Z,12.46
2018-11-14T19:06:37.423Z,12.44
2018-11-14T19:09:09.424Z,12.55
2018-11-14T19:11:40.397Z,12.40
2018-11-14T19:14:12.079Z,12.35
2018-11-14T19:16:43.310Z,12.48
2018-11-14T19:19:14.155Z,12.58
2018-11-14T19:21:45.865Z,12.63
2018-11-14T19:24:17.164Z,12.66
2018-11-14T19:26:47.986Z,12.73
2018-11-14T19:29:19.299Z,12.74
2018-11-14T19:31:50.032Z,12.69
2018-11-14T19:34:20.743Z,12.73
2018-11-14T19:36:52.121Z,12.70
2018-11-14T19:39:24.157Z,12.57
2018-11-14T19:41:55.705Z,12.51
2018-11-14T19:44:26.630Z,12.51
2018-11-14T19:46:57.546Z,12.50
2018-11-14T19:49:29.274Z,12.47
2018-11-14T19:52:00.038Z,12.39
2018-11-14T19:54:35.816Z,12.33
2018-11-14T19:57:09.857Z,12.35
2018-11-14T19:59:40.830Z,12.37
2018-11-14T20:02:11.972Z,12.38
2018-11-14T20:04:42.809Z,12.39
2018-11-14T20:07:14.318Z,12.47
2018-11-14T20:09:45.139Z,12.51
2018-11-14T20:12:15.824Z,12.49
2018-11-14T20:14:46.782Z,12.56
2018-11-14T20:17:19.029Z,12.68
2018-11-14T20:19:49.704Z,12.75
2018-11-14T20:22:20.700Z,12.72
2018-11-14T20:24:51.444Z,12.47
2018-11-14T20:27:23.548Z,12.44
2018-11-14T20:29:54.454Z,12.44
2018-11-14T20:32:25.563Z,12.44
2018-11-14T20:34:56.216Z,12.41
2018-11-14T20:37:27.668Z,12.42
2018-11-14T20:39:58.378Z,12.51
2018-11-14T20:42:29.087Z,12.59
2018-11-14T20:44:59.796Z,12.63
2018-11-14T20:47:30.673Z,12.64
2018-11-14T20:50:07.098Z,12.54
2018-11-14T20:52:37.852Z,12.43
2018-11-14T20:55:09.895Z,12.43
2018-11-14T20:57:41.374Z,12.46
2018-11-14T21:00:17.707Z,12.57
2018-11-14T21:02:48.593Z,12.61
2018-11-14T21:05:19.645Z,12.75
2018-11-14T21:07:50.738Z,12.85
2018-11-14T21:10:22.694Z,12.90
2018-11-14T21:12:54.072Z,12.88
2018-11-14T21:15:26.262Z,12.93
2018-11-14T21:17:57.868Z,12.98
2018-11-14T21:20:28.932Z,13.00
2018-11-14T21:22:59.727Z,13.07
2018-11-14T21:25:31.319Z,13.16
2018-11-14T21:28:05.398Z,13.26
2018-11-14T21:30:36.479Z,13.24
2018-11-14T21:33:10.008Z,13.16
2018-11-14T21:35:41.091Z,13.13
2018-11-14T21:38:11.948Z,13.20
2018-11-14T21:40:43.557Z,13.17
2018-11-14T21:43:15.169Z,13.14
2018-11-14T21:45:46.839Z,13.18
2018-11-14T21:48:18.864Z,13.18
2018-11-14T21:50:49.946Z,13.08
2018-11-14T21:53:21.662Z,13.07
2018-11-14T21:55:52.441Z,13.07
2018-11-14T21:58:23.189Z,13.06
2018-11-14T22:00:53.907Z,13.05
2018-11-14T22:03:24.656Z,13.05
2018-11-14T22:05:55.333Z,13.04
2018-11-14T22:08:26.267Z,13.08
2018-11-14T22:10:57.033Z,13.05
2018-11-14T22:13:27.804Z,13.13
2018-11-14T22:16:09.309Z,13.11
2018-11-14T22:18:40.058Z,13.10
2018-11-14T22:21:11.544Z,13.07
2018-11-14T22:23:42.200Z,13.04
2018-11-14T22:26:12.926Z,13.08
2018-11-14T22:28:43.733Z,13.07
2018-11-14T22:31:14.609Z,13.03
2018-11-14T22:33:46.050Z,12.99
2018-11-14T22:36:16.848Z,12.97
2018-11-14T22:38:47.688Z,12.96
2018-11-14T22:41:18.420Z,13.07
2018-11-14T22:43:49.659Z,13.09
2018-11-14T22:46:20.392Z,13.04
2018-11-14T22:48:51.218Z,12.92
2018-11-14T22:51:22.312Z,12.88
2018-11-14T22:53:53.011Z,12.89
2018-11-14T22:56:24.712Z,12.86
2018-11-14T22:58:55.400Z,12.77
2018-11-14T23:01:26.120Z,12.81
2018-11-14T23:03:57.737Z,12.87
2018-11-14T23:06:28.461Z,12.69
2018-11-14T23:08:59.132Z,12.74
2018-11-14T23:11:29.884Z,12.67
2018-11-14T23:14:00.700Z,12.62
2018-11-14T23:16:34.834Z,12.66
2018-11-14T23:19:06.884Z,12.75
2018-11-14T23:21:37.537Z,12.70
2018-11-14T23:24:08.593Z,12.74
2018-11-14T23:26:39.579Z,12.79
2018-11-14T23:29:10.254Z,12.79
2018-11-14T23:31:40.938Z,12.84
2018-11-14T23:34:12.734Z,12.86
2018-11-14T23:36:43.393Z,12.87
2018-11-14T23:39:15.607Z,12.91
2018-11-14T23:41:46.345Z,12.65
2018-11-14T23:44:17.018Z,12.80
2018-11-14T23:46:47.719Z,12.73
2018-11-14T23:49:18.400Z,12.73
2018-11-14T23:51:49.160Z,12.81
2018-11-14T23:54:19.818Z,12.76
2018-11-14T23:56:50.529Z,12.73
2018-11-14T23:59:21.225Z,12.72
